createdAt,value
2023-04-27T00:02:49.026Z,51.24
2023-04-27T00:05:51.022Z,51.28
2023-04-27T00:08:52.960Z,51.25
2023-04-27T00:11:55.085Z,51.36
2023-04-27T00:14:56.912Z,51.45
2023-04-27T00:17:58.817Z,51.65
2023-04-27T00:21:00.815Z,51.59
2023-04-27T00:24:02.531Z,51.57
2023-04-27T00:27:04.462Z,51.54
2023-04-27T00:30:07.597Z,51.63
2023-04-27T00:33:09.287Z,51.59
2023-04-27T00:36:11.165Z,51.63
2023-04-27T00:39:13.366Z,51.59
2023-04-27T00:42:18.898Z,51.70
2023-04-27T00:45:20.701Z,51.71
2023-04-27T00:48:22.615Z,51.85
2023-04-27T00:51:27.567Z,51.78
2023-04-27T00:54:31.049Z,51.82
2023-04-27T00:57:33.247Z,51.84
2023-04-27T01:00:39.606Z,51.82
2023-04-27T01:03:41.613Z,51.87
2023-04-27T01:06:43.600Z,51.93
2023-04-27T01:09:46.052Z,52.01
2023-04-27T01:12:47.761Z,52.19
2023-04-27T01:15:49.521Z,52.22
2023-04-27T01:18:51.487Z,52.16
2023-04-27T01:21:53.209Z,52.21
2023-04-27T01:24:54.986Z,52.29
2023-04-27T01:27:56.680Z,52.19
2023-04-27T01:30:58.432Z,52.24
2023-04-27T01:34:00.750Z,52.30
2023-04-27T01:37:02.478Z,52.28
2023-04-27T01:40:06.008Z,52.40
2023-04-27T01:43:07.704Z,52.48
2023-04-27T01:46:12.589Z,52.53
2023-04-27T01:49:14.549Z,52.60
2023-04-27T01:52:16.447Z,52.73
2023-04-27T01:55:18.391Z,52.90
2023-04-27T01:58:20.554Z,53.03
2023-04-27T02:01:23.120Z,53.07
2023-04-27T02:04:25.299Z,53.13
2023-04-27T02:07:27.068Z,53.17
2023-04-27T02:10:28.801Z,53.13
2023-04-27T02:13:30.607Z,53.16
2023-04-27T02:16:32.321Z,53.19
2023-04-27T02:19:34.028Z,53.13
2023-04-27T02:22:36.350Z,53.18
2023-04-27T02:25:38.504Z,53.26
2023-04-27T02:28:40.302Z,53.29
2023-04-27T02:31:42.638Z,53.34
2023-04-27T02:34:44.619Z,53.26
2023-04-27T02:37:46.416Z,53.30
2023-04-27T02:40:54.426Z,53.35
2023-04-27T02:43:56.071Z,53.32
2023-04-27T02:46:59.362Z,53.27
2023-04-27T02:50:01.460Z,53.21
2023-04-27T02:53:03.463Z,53.17
2023-04-27T02:56:05.447Z,53.22
2023-04-27T02:59:07.464Z,53.17
2023-04-27T03:02:09.310Z,53.20
2023-04-27T03:05:11.048Z,53.22
2023-04-27T03:08:12.776Z,53.24
2023-04-27T03:11:14.509Z,53.25
2023-04-27T03:14:16.163Z,53.30
2023-04-27T03:17:17.766Z,53.29
2023-04-27T03:20:22.700Z,53.36
2023-04-27T03:23:24.380Z,53.27
2023-04-27T03:26:27.141Z,53.43
2023-04-27T03:29:28.828Z,53.52
2023-04-27T03:32:30.621Z,53.64
2023-04-27T03:35:32.338Z,53.62
2023-04-27T03:38:34.998Z,53.83
2023-04-27T03:41:36.885Z,54.00
2023-04-27T03:44:39.056Z,53.97
2023-04-27T03:47:40.849Z,54.19
2023-04-27T03:50:43.249Z,54.37
2023-04-27T03:53:45.389Z,54.41
2023-04-27T03:56:47.231Z,54.42
2023-04-27T03:59:49.656Z,54.41
2023-04-27T04:02:51.693Z,54.43
2023-04-27T04:05:53.548Z,54.40
2023-04-27T04:08:55.325Z,54.44
2023-04-27T04:11:57.455Z,54.59
2023-04-27T04:14:59.319Z,54.54
2023-04-27T04:18:01.454Z,54.66
2023-04-27T04:21:03.371Z,54.60
2023-04-27T04:24:05.506Z,54.66
2023-04-27T04:27:07.879Z,54.64
2023-04-27T04:30:10.865Z,54.81
2023-04-27T04:33:13.141Z,54.88
2023-04-27T04:36:15.775Z,54.86
2023-04-27T04:39:21.316Z,54.97
2023-04-27T04:42:23.180Z,55.06
2023-04-27T04:45:25.373Z,55.05
2023-04-27T04:48:27.395Z,55.08
2023-04-27T04:51:30.180Z,54.98
2023-04-27T04:54:31.919Z,55.03
2023-04-27T04:57:33.593Z,55.03
2023-04-27T05:00:35.297Z,55.02
2023-04-27T05:03:37.267Z,54.86
2023-04-27T05:06:39.177Z,54.91
2023-04-27T05:09:40.921Z,54.73
2023-04-27T05:12:43.900Z,54.72
2023-04-27T05:15:46.032Z,54.73
2023-04-27T05:18:47.815Z,54.59
2023-04-27T05:21:49.675Z,54.48
2023-04-27T05:24:51.345Z,54.18
2023-04-27T05:27:53.009Z,54.16
2023-04-27T05:30:54.748Z,53.99
2023-04-27T05:33:56.386Z,53.92
2023-04-27T05:36:58.051Z,53.78
2023-04-27T05:39:59.735Z,53.48
2023-04-27T05:43:04.656Z,53.42
2023-04-27T05:46:06.453Z,53.38
2023-04-27T05:49:08.328Z,53.06
2023-04-27T05:52:10.141Z,52.89
2023-04-27T05:55:11.911Z,52.76
2023-04-27T05:58:13.658Z,52.65
2023-04-27T06:01:15.531Z,52.56
2023-04-27T06:04:17.402Z,52.28
2023-04-27T06:07:19.629Z,52.19
2023-04-27T06:10:21.424Z,51.98
2023-04-27T06:13:23.240Z,51.82
2023-04-27T06:16:25.162Z,51.83
2023-04-27T06:19:27.406Z,51.86
2023-04-27T06:22:29.104Z,51.44
2023-04-27T06:25:30.853Z,51.17
2023-04-27T06:28:33.293Z,51.03
2023-04-27T06:31:35.187Z,50.98
2023-04-27T06:34:36.988Z,50.93
2023-04-27T06:37:38.814Z,50.79
2023-04-27T06:40:40.516Z,50.52
2023-04-27T06:43:42.340Z,50.46
2023-04-27T06:46:44.062Z,50.15
2023-04-27T06:49:46.598Z,50.02
2023-04-27T06:52:49.678Z,49.95
2023-04-27T06:55:51.456Z,49.82
2023-04-27T06:58:53.642Z,49.35
2023-04-27T07:01:55.465Z,49.17
2023-04-27T07:04:58.242Z,49.20
2023-04-27T07:08:03.340Z,48.97
2023-04-27T07:11:07.127Z,48.71
2023-04-27T07:14:10.262Z,48.47
2023-04-27T07:17:12.809Z,48.26
2023-04-27T07:20:18.164Z,47.80
2023-04-27T07:23:20.036Z,48.18
2023-04-27T07:26:24.279Z,48.79
2023-04-27T07:29:27.700Z,47.58
2023-04-27T07:32:30.330Z,47.12
2023-04-27T07:35:33.258Z,46.91
2023-04-27T07:38:35.042Z,46.45
2023-04-27T07:41:37.162Z,46.05
2023-04-27T07:44:40.059Z,46.07
2023-04-27T07:47:41.883Z,45.31
2023-04-27T07:50:43.786Z,44.80
2023-04-27T07:53:47.694Z,44.43
2023-04-27T07:56:49.724Z,44.38
2023-04-27T07:59:51.663Z,44.19
2023-04-27T08:02:54.616Z,44.20
2023-04-27T08:05:56.721Z,43.77
2023-04-27T08:09:00.260Z,43.78
2023-04-27T08:12:02.296Z,43.97
2023-04-27T08:15:07.668Z,43.85
2023-04-27T08:18:10.364Z,43.60
2023-04-27T08:21:12.432Z,43.42
2023-04-27T08:24:14.186Z,43.45
2023-04-27T08:27:16.388Z,43.23
2023-04-27T08:30:19.041Z,43.07
2023-04-27T08:33:20.921Z,42.86
2023-04-27T08:36:25.816Z,43.01
2023-04-27T08:39:27.731Z,42.77
2023-04-27T08:42:30.113Z,42.82
2023-04-27T08:45:32.394Z,42.60
2023-04-27T08:48:34.686Z,42.76
2023-04-27T08:51:36.709Z,42.74
2023-04-27T08:54:38.405Z,42.68
2023-04-27T08:57:40.744Z,42.63
2023-04-27T09:00:45.406Z,42.60
2023-04-27T09:03:47.368Z,42.44
2023-04-27T09:06:49.216Z,42.34
2023-04-27T09:10:02.035Z,42.18
2023-04-27T09:13:03.765Z,42.10
2023-04-27T09:16:06.294Z,42.08
2023-04-27T09:19:08.265Z,42.21
2023-04-27T09:22:13.057Z,43.91
2023-04-27T09:25:28.373Z,43.04
2023-04-27T09:28:31.699Z,42.62
2023-04-27T09:31:35.364Z,42.33
2023-04-27T09:34:39.368Z,42.04
2023-04-27T09:37:41.239Z,41.77
2023-04-27T09:40:43.231Z,41.59
2023-04-27T09:43:46.645Z,41.46
2023-04-27T09:46:48.681Z,41.45
2023-04-27T09:49:51.500Z,41.50
2023-04-27T09:52:54.095Z,41.50
2023-04-27T09:56:01.903Z,41.47
2023-04-27T09:59:09.524Z,41.23
2023-04-27T10:02:24.642Z,40.99
2023-04-27T10:05:43.244Z,40.97
2023-04-27T10:08:45.268Z,40.76
2023-04-27T10:11:47.288Z,40.51
2023-04-27T10:14:49.386Z,40.24
2023-04-27T10:17:58.226Z,40.10
2023-04-27T10:21:12.360Z,40.17
2023-04-27T10:24:14.142Z,40.06
2023-04-27T10:27:23.485Z,40.17
2023-04-27T10:30:31.395Z,40.27
2023-04-27T10:33:43.518Z,40.15
2023-04-27T10:36:45.634Z,40.17
2023-04-27T10:39:49.403Z,40.26
2023-04-27T10:42:51.843Z,40.34
2023-04-27T10:45:54.834Z,40.33
2023-04-27T10:48:57.694Z,40.35
2023-04-27T10:55:23.375Z,40.00
2023-04-27T10:58:29.862Z,40.14
2023-04-27T11:01:37.170Z,40.15
2023-04-27T11:04:40.824Z,40.32
2023-04-27T11:07:47.321Z,40.28
2023-04-27T11:10:52.030Z,40.29
2023-04-27T11:13:55.330Z,40.35
2023-04-27T11:16:58.193Z,40.33
2023-04-27T11:20:00.276Z,40.26
2023-04-27T11:23:02.391Z,40.02
2023-04-27T11:26:18.804Z,40.04
2023-04-27T11:29:20.915Z,39.72
2023-04-27T11:32:24.871Z,39.60
2023-04-27T11:35:34.004Z,39.68
2023-04-27T11:38:35.843Z,39.46
2023-04-27T11:41:38.694Z,39.27
2023-04-27T11:44:40.752Z,39.19
2023-04-27T11:47:46.810Z,39.08
2023-04-27T11:50:49.710Z,39.15
2023-04-27T11:53:52.164Z,39.17
2023-04-27T11:57:04.763Z,39.18
2023-04-27T12:00:10.547Z,39.36
2023-04-27T12:03:15.355Z,39.26
2023-04-27T12:09:29.919Z,39.00
2023-04-27T12:12:32.893Z,38.70
2023-04-27T12:15:34.633Z,38.59
2023-04-27T12:18:36.447Z,38.63
2023-04-27T12:21:39.282Z,38.62
2023-04-27T12:24:41.005Z,38.53
2023-04-27T12:27:43.284Z,38.10
2023-04-27T12:30:45.407Z,37.99
2023-04-27T12:33:48.630Z,38.09
2023-04-27T12:36:50.621Z,38.03
2023-04-27T12:39:52.548Z,38.14
2023-04-27T12:42:54.634Z,38.08
2023-04-27T12:45:56.939Z,38.16
2023-04-27T12:48:58.717Z,38.38
2023-04-27T12:52:00.700Z,38.68
2023-04-27T12:55:02.499Z,38.88
2023-04-27T12:58:04.538Z,39.10
2023-04-27T13:01:13.914Z,39.38
2023-04-27T13:04:19.987Z,39.54
2023-04-27T13:07:22.464Z,39.85
2023-04-27T13:10:24.589Z,40.02
2023-04-27T13:13:26.385Z,39.98
2023-04-27T13:16:28.189Z,39.90
2023-04-27T13:19:30.598Z,39.84
2023-04-27T13:22:32.566Z,40.02
2023-04-27T13:25:34.595Z,40.01
2023-04-27T13:28:36.379Z,40.08
2023-04-27T13:31:38.163Z,39.79
2023-04-27T13:34:40.564Z,39.93
2023-04-27T13:37:42.348Z,39.98
2023-04-27T13:40:44.402Z,39.73
2023-04-27T13:43:46.244Z,39.79
2023-04-27T13:46:47.962Z,39.72
2023-04-27T13:49:49.897Z,40.05
2023-04-27T13:52:51.814Z,39.97
2023-04-27T13:55:54.803Z,39.94
2023-04-27T13:58:56.613Z,40.16
2023-04-27T14:01:58.539Z,40.31
2023-04-27T14:05:00.390Z,40.11
2023-04-27T14:08:02.528Z,40.12
2023-04-27T14:11:05.416Z,40.16
2023-04-27T14:14:07.630Z,40.18
2023-04-27T14:17:09.495Z,40.28
2023-04-27T14:20:19.955Z,40.37
2023-04-27T14:23:21.815Z,40.37
2023-04-27T14:26:23.749Z,40.49
2023-04-27T14:29:26.064Z,40.49
2023-04-27T14:32:27.758Z,40.48
2023-04-27T14:35:29.779Z,40.62
2023-04-27T14:38:33.894Z,40.51
2023-04-27T14:41:36.992Z,40.54
2023-04-27T14:44:38.818Z,40.56
2023-04-27T14:47:40.665Z,40.63
2023-04-27T14:50:42.564Z,40.45
2023-04-27T14:53:44.645Z,40.29
2023-04-27T14:56:47.904Z,40.15
2023-04-27T14:59:51.647Z,40.03
2023-04-27T15:02:54.378Z,39.96
2023-04-27T15:05:56.200Z,39.82
2023-04-27T15:08:58.004Z,39.79
2023-04-27T15:12:01.325Z,39.81
2023-04-27T15:15:03.183Z,39.81
2023-04-27T15:18:05.044Z,39.70
2023-04-27T15:21:06.755Z,39.53
2023-04-27T15:24:10.446Z,39.61
2023-04-27T15:27:19.122Z,39.58
2023-04-27T15:30:22.094Z,39.76
2023-04-27T15:33:36.838Z,39.74
2023-04-27T15:36:38.615Z,39.77
2023-04-27T15:39:41.409Z,39.43
2023-04-27T15:42:43.097Z,39.40
2023-04-27T15:45:45.053Z,39.41
2023-04-27T15:48:48.727Z,39.36
2023-04-27T15:51:50.754Z,39.24
2023-04-27T15:54:55.532Z,39.54
2023-04-27T15:57:57.404Z,39.46
2023-04-27T16:00:59.842Z,39.47
2023-04-27T16:04:03.413Z,39.42
2023-04-27T16:07:08.017Z,39.41
2023-04-27T16:10:11.058Z,39.50
2023-04-27T16:13:12.884Z,39.50
2023-04-27T16:16:14.651Z,39.47
2023-04-27T16:19:18.620Z,39.39
2023-04-27T16:22:21.505Z,39.54
2023-04-27T16:25:23.246Z,39.49
2023-04-27T16:28:24.960Z,39.66
2023-04-27T16:31:27.386Z,39.57
2023-04-27T16:34:29.247Z,39.57
2023-04-27T16:37:32.268Z,39.45
2023-04-27T16:40:34.054Z,39.51
2023-04-27T16:43:36.299Z,39.52
2023-04-27T16:46:38.472Z,39.22
2023-04-27T16:49:44.204Z,39.26
2023-04-27T16:52:49.465Z,39.24
2023-04-27T16:55:51.335Z,39.27
2023-04-27T16:58:53.539Z,39.66
2023-04-27T17:01:55.810Z,39.90
2023-04-27T17:04:58.853Z,39.96
2023-04-27T17:08:01.233Z,40.20
2023-04-27T17:11:09.770Z,40.21
2023-04-27T17:14:13.270Z,40.37
2023-04-27T17:17:15.203Z,40.56
2023-04-27T17:20:17.069Z,40.81
2023-04-27T17:23:19.155Z,41.61
2023-04-27T17:26:21.399Z,41.74
2023-04-27T17:29:23.345Z,41.76
2023-04-27T17:32:28.601Z,41.80
2023-04-27T17:35:30.783Z,41.90
2023-04-27T17:38:32.487Z,41.95
2023-04-27T17:41:36.784Z,42.20
2023-04-27T17:44:40.537Z,42.25
2023-04-27T17:47:42.245Z,42.31
2023-04-27T17:50:43.941Z,42.38
2023-04-27T17:53:45.617Z,42.34
2023-04-27T17:56:47.291Z,42.42
2023-04-27T17:59:49.760Z,42.71
2023-04-27T18:02:51.575Z,42.96
2023-04-27T18:05:53.416Z,43.22
2023-04-27T18:08:55.488Z,43.26
2023-04-27T18:11:58.137Z,43.36
2023-04-27T18:15:03.395Z,43.55
2023-04-27T18:18:06.547Z,43.65
2023-04-27T18:21:08.309Z,43.69
2023-04-27T18:24:10.228Z,43.67
2023-04-27T18:27:12.001Z,43.85
2023-04-27T18:30:13.805Z,44.14
2023-04-27T18:33:17.194Z,44.56
2023-04-27T18:36:19.241Z,44.90
2023-04-27T18:39:21.448Z,44.82
2023-04-27T18:42:23.181Z,44.92
2023-04-27T18:45:24.955Z,45.00
2023-04-27T18:48:26.674Z,44.87
2023-04-27T18:51:28.658Z,45.17
2023-04-27T18:54:30.346Z,45.44
2023-04-27T18:57:33.041Z,45.49
2023-04-27T19:00:37.384Z,45.72
2023-04-27T19:03:39.289Z,45.65
2023-04-27T19:06:41.460Z,45.80
2023-04-27T19:09:43.141Z,45.93
2023-04-27T19:12:44.872Z,46.38
2023-04-27T19:15:46.593Z,46.54
2023-04-27T19:18:48.312Z,46.78
2023-04-27T19:21:50.179Z,47.16
2023-04-27T19:24:51.852Z,47.14
2023-04-27T19:27:54.898Z,46.98
2023-04-27T19:30:56.622Z,47.09
2023-04-27T19:34:04.128Z,47.14
2023-04-27T19:37:06.248Z,47.53
2023-04-27T19:40:08.708Z,47.72
2023-04-27T19:43:11.319Z,47.89
2023-04-27T19:46:13.004Z,47.97
2023-04-27T19:49:15.339Z,48.14
2023-04-27T19:52:17.274Z,48.35
2023-04-27T19:55:18.956Z,48.21
2023-04-27T19:58:20.966Z,48.36
2023-04-27T20:01:22.816Z,48.51
2023-04-27T20:04:25.093Z,48.63
2023-04-27T20:07:27.054Z,48.80
2023-04-27T20:10:28.761Z,49.01
2023-04-27T20:13:30.875Z,49.07
2023-04-27T20:16:32.737Z,49.29
2023-04-27T20:19:34.401Z,49.54
2023-04-27T20:22:37.140Z,49.56
2023-04-27T20:25:38.774Z,49.53
2023-04-27T20:28:40.529Z,49.50
2023-04-27T20:31:42.324Z,49.51
2023-04-27T20:34:44.056Z,49.70
2023-04-27T20:37:46.522Z,49.97
2023-04-27T20:40:49.627Z,50.03
2023-04-27T20:43:51.774Z,50.05
2023-04-27T20:46:54.600Z,49.86
2023-04-27T20:49:56.412Z,49.94
2023-04-27T20:52:58.109Z,49.92
2023-04-27T20:55:59.775Z,49.95
2023-04-27T20:59:01.573Z,49.96
2023-04-27T21:02:03.325Z,50.06
2023-04-27T21:05:05.237Z,49.98
2023-04-27T21:08:06.972Z,49.93
2023-04-27T21:11:09.010Z,50.04
2023-04-27T21:14:10.803Z,50.14
2023-04-27T21:17:14.549Z,50.22
2023-04-27T21:20:16.491Z,50.47
2023-04-27T21:23:19.144Z,50.62
2023-04-27T21:26:20.857Z,50.71
2023-04-27T21:29:22.825Z,50.95
2023-04-27T21:32:24.556Z,51.11
2023-04-27T21:35:26.454Z,51.30
2023-04-27T21:38:28.183Z,51.36
2023-04-27T21:41:29.817Z,51.52
2023-04-27T21:44:31.557Z,51.63
2023-04-27T21:47:33.308Z,51.91
2023-04-27T21:50:35.186Z,52.01
2023-04-27T21:53:37.010Z,52.10
2023-04-27T21:56:38.757Z,52.05
2023-04-27T21:59:40.622Z,52.01
2023-04-27T22:02:42.748Z,52.10
2023-04-27T22:05:44.711Z,52.11
2023-04-27T22:08:46.617Z,52.24
2023-04-27T22:11:48.257Z,52.38
2023-04-27T22:14:49.962Z,52.40
2023-04-27T22:17:53.139Z,52.53
2023-04-27T22:20:54.916Z,52.65
2023-04-27T22:23:56.857Z,52.70
2023-04-27T22:26:58.607Z,52.86
2023-04-27T22:30:00.377Z,52.90
2023-04-27T22:33:02.526Z,52.99
2023-04-27T22:36:05.231Z,52.92
2023-04-27T22:39:07.545Z,53.01
2023-04-27T22:42:09.160Z,53.00
2023-04-27T22:45:11.315Z,53.23
2023-04-27T22:48:12.991Z,53.35
2023-04-27T22:51:14.869Z,53.26
2023-04-27T22:54:16.733Z,53.25
2023-04-27T22:57:18.576Z,53.28
2023-04-27T23:00:20.496Z,53.22
2023-04-27T23:03:22.433Z,53.26
2023-04-27T23:06:24.320Z,53.27
2023-04-27T23:09:26.390Z,53.39
2023-04-27T23:12:29.583Z,53.40
2023-04-27T23:15:31.324Z,53.46
2023-04-27T23:18:33.265Z,53.52
2023-04-27T23:21:35.012Z,53.61
2023-04-27T23:24:36.708Z,53.63
2023-04-27T23:27:38.539Z,53.71
2023-04-27T23:30:40.364Z,53.73
2023-04-27T23:33:42.075Z,53.87
2023-04-27T23:36:44.013Z,53.88
2023-04-27T23:39:45.833Z,53.94
2023-04-27T23:42:48.560Z,53.98
2023-04-27T23:45:52.149Z,53.90
2023-04-27T23:48:53.906Z,54.01
2023-04-27T23:51:55.672Z,53.94
2023-04-27T23:54:57.718Z,54.05
2023-04-27T23:57:59.400Z,54.07
